createdAt,value
2018-11-22T00:00:14.906Z,0
2018-11-22T00:01:13.411Z,0
2018-11-22T00:02:11.953Z,0
2018-11-22T00:03:10.463Z,0
2018-11-22T00:04:09.000Z,0
2018-11-22T00:05:07.548Z,0
2018-11-22T00:06:06.050Z,0
2018-11-22T00:07:04.564Z,0
2018-11-22T00:08:03.088Z,0
2018-11-22T00:09:01.616Z,0
2018-11-22T00:10:00.134Z,0
2018-11-22T00:10:58.625Z,0
2018-11-22T00:11:57.193Z,0
2018-11-22T00:12:55.706Z,0
2018-11-22T00:13:54.238Z,0
2018-11-22T00:14:52.994Z,0
2018-11-22T00:15:51.510Z,0
2018-11-22T00:16:50.245Z,0
2018-11-22T00:17:48.782Z,0
2018-11-22T00:18:47.328Z,0
2018-11-22T00:19:45.853Z,0
2018-11-22T00:20:44.707Z,0
2018-11-22T00:21:43.217Z,0
2018-11-22T00:22:41.761Z,0
2018-11-22T00:23:40.320Z,0
2018-11-22T00:24:38.827Z,0
2018-11-22T00:25:37.336Z,0
2018-11-22T00:26:35.884Z,0
2018-11-22T00:27:34.405Z,0
2018-11-22T00:28:32.926Z,0
2018-11-22T00:29:31.491Z,0
2018-11-22T00:30:30.024Z,0
2018-11-22T00:31:28.539Z,0
2018-11-22T00:32:27.074Z,0
2018-11-22T00:33:25.592Z,0
2018-11-22T00:34:24.129Z,0
2018-11-22T00:35:22.643Z,0
2018-11-22T00:36:21.189Z,0
2018-11-22T00:37:19.687Z,0
2018-11-22T00:38:18.205Z,0
2018-11-22T00:39:16.725Z,0
2018-11-22T00:40:15.246Z,0
2018-11-22T00:41:13.786Z,0
2018-11-22T00:42:12.442Z,0
2018-11-22T00:43:11.048Z,0
2018-11-22T00:44:09.586Z,0
2018-11-22T00:45:08.286Z,0
2018-11-22T00:46:06.950Z,0
2018-11-22T00:47:05.503Z,0
2018-11-22T00:48:04.046Z,0
2018-11-22T00:49:02.709Z,0
2018-11-22T00:50:01.254Z,0
2018-11-22T00:50:59.803Z,0
2018-11-22T00:51:58.335Z,0
2018-11-22T00:52:56.853Z,0
2018-11-22T00:53:55.362Z,0
2018-11-22T00:54:53.904Z,0
2018-11-22T00:55:52.443Z,0
2018-11-22T00:56:50.936Z,0
2018-11-22T00:57:49.485Z,0
2018-11-22T00:58:48.021Z,0
2018-11-22T01:01:28.054Z,0
2018-11-22T01:02:26.858Z,0
2018-11-22T01:03:25.376Z,0
2018-11-22T01:04:24.012Z,0
2018-11-22T01:05:22.632Z,0
2018-11-22T01:06:21.155Z,0
2018-11-22T01:07:19.774Z,0
2018-11-22T01:08:19.287Z,0
2018-11-22T01:09:17.876Z,0
2018-11-22T01:10:16.436Z,0
2018-11-22T01:11:14.961Z,0
2018-11-22T01:12:13.468Z,0
2018-11-22T01:13:12.092Z,0
2018-11-22T01:14:10.605Z,0
2018-11-22T01:15:09.124Z,0
2018-11-22T01:16:07.693Z,0
2018-11-22T01:17:06.276Z,0
2018-11-22T01:18:04.942Z,0
2018-11-22T01:19:03.446Z,0
2018-11-22T01:20:01.950Z,0
2018-11-22T01:21:00.642Z,0
2018-11-22T01:21:59.149Z,0
2018-11-22T01:22:57.666Z,0
2018-11-22T01:23:56.342Z,0
2018-11-22T01:24:54.851Z,0
2018-11-22T01:25:53.371Z,0
2018-11-22T01:26:51.893Z,0
2018-11-22T01:27:50.531Z,0
2018-11-22T01:28:49.058Z,0
2018-11-22T01:29:47.582Z,0
2018-11-22T01:30:46.170Z,0
2018-11-22T01:31:44.723Z,0
2018-11-22T01:32:43.235Z,0
2018-11-22T01:33:41.821Z,0
2018-11-22T01:34:40.395Z,0
2018-11-22T01:35:38.906Z,0
2018-11-22T01:36:37.425Z,0
2018-11-22T01:37:36.066Z,0
2018-11-22T01:38:34.571Z,0
2018-11-22T01:39:33.092Z,0
2018-11-22T01:40:31.626Z,0
2018-11-22T01:41:30.128Z,0
2018-11-22T01:42:28.629Z,0
2018-11-22T01:43:27.174Z,0
2018-11-22T01:44:25.715Z,0
2018-11-22T01:45:24.228Z,0
2018-11-22T01:46:22.764Z,0
2018-11-22T01:47:21.317Z,0
2018-11-22T01:48:19.856Z,0
2018-11-22T01:49:18.384Z,0
2018-11-22T01:50:17.139Z,0
2018-11-22T01:51:15.674Z,0
2018-11-22T01:52:14.433Z,0
2018-11-22T01:55:13.556Z,0
2018-11-22T01:56:12.144Z,0
2018-11-22T01:57:10.754Z,0
2018-11-22T01:59:51.069Z,0
2018-11-22T02:00:49.588Z,0
2018-11-22T02:01:48.218Z,0
2018-11-22T02:02:46.762Z,0
2018-11-22T02:03:45.278Z,0
2018-11-22T02:04:43.803Z,0
2018-11-22T02:05:42.321Z,0
2018-11-22T02:06:40.882Z,0
2018-11-22T02:07:39.435Z,0
2018-11-22T02:08:38.073Z,0
2018-11-22T02:09:36.768Z,0
2018-11-22T02:10:35.293Z,0
2018-11-22T02:11:33.814Z,0
2018-11-22T02:12:32.630Z,0
2018-11-22T02:13:31.200Z,0
2018-11-22T02:14:29.983Z,0
2018-11-22T02:15:28.330Z,0
2018-11-22T02:16:26.860Z,0
2018-11-22T02:28:47.195Z,0
2018-11-22T02:29:45.709Z,0
2018-11-22T02:30:44.270Z,0
2018-11-22T02:33:24.442Z,0
2018-11-22T02:34:22.997Z,0
2018-11-22T02:35:21.535Z,0
2018-11-22T02:36:20.029Z,0
2018-11-22T02:37:18.737Z,0
2018-11-22T02:39:34.757Z,0
2018-11-22T02:40:33.301Z,0
2018-11-22T02:41:31.803Z,0
2018-11-22T02:42:31.358Z,0
2018-11-22T02:43:29.916Z,0
2018-11-22T02:44:28.459Z,0
2018-11-22T02:47:08.885Z,0
2018-11-22T02:48:07.401Z,0
2018-11-22T02:49:06.033Z,0
2018-11-22T02:50:04.573Z,0
2018-11-22T02:51:03.097Z,0
2018-11-22T02:52:01.618Z,0
2018-11-22T02:53:00.399Z,0
2018-11-22T02:55:40.512Z,0
2018-11-22T02:56:39.018Z,0
2018-11-22T02:57:37.557Z,0
2018-11-22T02:58:36.066Z,0
2018-11-22T02:59:34.583Z,0
2018-11-22T03:00:33.108Z,0
2018-11-22T03:01:31.652Z,0
2018-11-22T03:02:30.223Z,0
2018-11-22T03:03:28.830Z,0
2018-11-22T03:04:27.346Z,0
2018-11-22T03:05:25.965Z,0
2018-11-22T03:06:24.645Z,0
2018-11-22T03:07:23.182Z,0
2018-11-22T03:08:21.707Z,0
2018-11-22T03:09:20.303Z,0
2018-11-22T03:10:18.892Z,0
2018-11-22T03:11:17.410Z,0
2018-11-22T03:12:16.079Z,0
2018-11-22T03:13:14.632Z,0
2018-11-22T03:18:34.971Z,0
2018-11-22T03:19:33.485Z,0
2018-11-22T03:20:32.301Z,0
2018-11-22T03:21:30.896Z,0
2018-11-22T03:22:29.515Z,0
2018-11-22T03:23:28.123Z,0
2018-11-22T03:24:26.701Z,0
2018-11-22T03:25:25.216Z,0
2018-11-22T03:28:05.712Z,0
2018-11-22T03:29:04.335Z,0
2018-11-22T03:30:03.003Z,0
2018-11-22T03:31:01.477Z,0
2018-11-22T03:32:00.050Z,0
2018-11-22T03:32:58.678Z,0
2018-11-22T03:33:57.239Z,0
2018-11-22T03:34:56.372Z,0
2018-11-22T03:35:54.947Z,0
2018-11-22T03:38:35.142Z,0
2018-11-22T03:39:33.664Z,0
2018-11-22T03:40:32.226Z,0
2018-11-22T03:41:30.761Z,0
2018-11-22T03:42:29.278Z,0
2018-11-22T03:43:27.777Z,0
2018-11-22T03:44:27.053Z,0
2018-11-22T03:45:25.574Z,0
2018-11-22T03:46:24.297Z,0
2018-11-22T03:47:22.844Z,0
2018-11-22T03:48:21.367Z,0
2018-11-22T03:49:19.867Z,0
2018-11-22T03:50:18.399Z,0
2018-11-22T03:51:16.929Z,0
2018-11-22T03:52:15.620Z,0
2018-11-22T03:53:14.197Z,0
2018-11-22T03:54:12.886Z,0
2018-11-22T03:55:11.433Z,0
2018-11-22T03:56:10.013Z,0
2018-11-22T03:57:08.611Z,0
2018-11-22T03:58:07.174Z,0
2018-11-22T03:59:05.692Z,0
2018-11-22T04:00:04.504Z,0
2018-11-22T04:01:03.046Z,0
2018-11-22T04:02:01.537Z,0
2018-11-22T04:03:00.115Z,0
2018-11-22T04:03:58.671Z,0
2018-11-22T04:04:57.176Z,0
2018-11-22T04:05:55.702Z,0
2018-11-22T04:06:54.893Z,0
2018-11-22T04:07:52.748Z,0
2018-11-22T04:08:51.266Z,0
2018-11-22T04:09:49.790Z,0
2018-11-22T04:10:48.302Z,0
2018-11-22T04:11:46.832Z,0
2018-11-22T04:12:45.380Z,0
2018-11-22T04:13:43.907Z,0
2018-11-22T04:14:42.427Z,0
2018-11-22T04:15:40.937Z,0
2018-11-22T04:16:39.427Z,0
2018-11-22T04:17:37.964Z,0
2018-11-22T04:18:36.479Z,0
2018-11-22T04:19:35.017Z,0
2018-11-22T04:20:33.513Z,0
2018-11-22T04:21:32.040Z,0
2018-11-22T04:22:30.556Z,0
2018-11-22T04:23:29.073Z,0
2018-11-22T04:24:27.590Z,0
2018-11-22T04:25:26.099Z,0
2018-11-22T04:26:24.629Z,0
2018-11-22T04:27:23.136Z,0
2018-11-22T04:28:21.664Z,0
2018-11-22T04:29:20.192Z,0
2018-11-22T04:30:18.714Z,0
2018-11-22T04:31:17.291Z,0
2018-11-22T04:32:15.788Z,0
2018-11-22T04:33:14.306Z,0
2018-11-22T04:34:12.903Z,0
2018-11-22T04:35:11.428Z,0
2018-11-22T04:36:09.954Z,0
2018-11-22T04:37:08.740Z,0
2018-11-22T04:38:07.277Z,0
2018-11-22T04:39:05.845Z,0
2018-11-22T04:40:04.422Z,0
2018-11-22T04:41:03.016Z,0
2018-11-22T04:42:01.638Z,0
2018-11-22T04:43:00.198Z,0
2018-11-22T04:43:58.817Z,0
2018-11-22T04:44:57.370Z,0
2018-11-22T04:45:55.895Z,0
2018-11-22T04:46:54.432Z,0
2018-11-22T04:47:52.956Z,0
2018-11-22T04:48:51.470Z,0
2018-11-22T04:49:49.991Z,0
2018-11-22T04:50:48.509Z,0
2018-11-22T04:51:47.035Z,0
2018-11-22T04:52:45.566Z,0
2018-11-22T04:53:44.366Z,0
2018-11-22T04:54:42.960Z,0
2018-11-22T04:55:41.481Z,0
2018-11-22T04:56:40.132Z,0
2018-11-22T04:57:38.759Z,0
2018-11-22T04:58:37.290Z,0
2018-11-22T04:59:36.225Z,0
2018-11-22T05:00:34.789Z,0
2018-11-22T05:01:33.309Z,0
2018-11-22T05:02:31.832Z,0
2018-11-22T05:03:30.372Z,0
2018-11-22T05:04:30.643Z,0
2018-11-22T05:05:27.565Z,0
2018-11-22T05:06:26.171Z,0
2018-11-22T05:07:24.697Z,0
2018-11-22T05:08:23.217Z,0
2018-11-22T05:09:21.787Z,0
2018-11-22T05:10:20.514Z,0
2018-11-22T05:11:19.086Z,0
2018-11-22T05:12:17.606Z,0
2018-11-22T05:13:16.198Z,0
2018-11-22T05:14:14.964Z,0
2018-11-22T05:15:13.487Z,0
2018-11-22T05:16:11.997Z,0
2018-11-22T05:17:10.524Z,0
2018-11-22T05:18:09.051Z,0
2018-11-22T05:19:07.588Z,0
2018-11-22T05:20:06.105Z,0
2018-11-22T05:21:04.611Z,0
2018-11-22T05:22:03.134Z,0
2018-11-22T05:23:01.666Z,0
2018-11-22T05:24:00.200Z,0
2018-11-22T05:24:58.837Z,0
2018-11-22T05:25:57.354Z,0
2018-11-22T05:26:55.869Z,0
2018-11-22T05:27:54.535Z,0
2018-11-22T05:28:53.087Z,0
2018-11-22T05:29:51.616Z,0
2018-11-22T05:30:50.292Z,0
2018-11-22T05:31:48.888Z,0
2018-11-22T05:32:47.411Z,0
2018-11-22T05:33:45.943Z,0
2018-11-22T05:34:44.682Z,0
2018-11-22T05:35:43.178Z,0
2018-11-22T05:36:41.704Z,0
2018-11-22T05:37:40.294Z,0
2018-11-22T05:38:38.818Z,0
2018-11-22T05:39:37.323Z,0
2018-11-22T05:40:35.855Z,0
2018-11-22T05:41:34.379Z,0
2018-11-22T05:42:32.937Z,0
2018-11-22T05:43:31.435Z,0
2018-11-22T05:44:29.949Z,0
2018-11-22T05:45:28.479Z,0
2018-11-22T05:46:26.984Z,0
2018-11-22T05:47:25.536Z,0
2018-11-22T05:48:24.041Z,0
2018-11-22T05:49:22.576Z,0
2018-11-22T05:50:21.089Z,0
2018-11-22T05:51:19.624Z,0
2018-11-22T05:54:02.597Z,0
2018-11-22T05:55:01.171Z,0
2018-11-22T05:55:59.697Z,0
2018-11-22T05:56:58.623Z,0
2018-11-22T05:59:14.482Z,0
2018-11-22T06:00:13.022Z,0
2018-11-22T06:02:55.142Z,0
2018-11-22T06:03:53.662Z,0
2018-11-22T06:04:52.224Z,0
2018-11-22T06:05:50.972Z,0
2018-11-22T06:06:49.498Z,0
2018-11-22T06:07:48.040Z,0
2018-11-22T06:08:46.655Z,0
2018-11-22T06:09:45.202Z,0
2018-11-22T06:10:43.710Z,0
2018-11-22T06:11:42.295Z,0
2018-11-22T06:12:40.912Z,0
2018-11-22T06:13:39.460Z,0
2018-11-22T06:14:38.150Z,0
2018-11-22T06:17:18.100Z,0
2018-11-22T06:18:16.618Z,0
2018-11-22T06:19:15.204Z,4
2018-11-22T06:20:13.729Z,0
2018-11-22T06:21:12.260Z,4
2018-11-22T06:22:10.767Z,4
2018-11-22T06:23:09.279Z,4
2018-11-22T06:24:07.805Z,4
2018-11-22T06:25:06.372Z,4
2018-11-22T06:26:05.021Z,8
2018-11-22T06:27:03.590Z,12
2018-11-22T06:28:02.389Z,12
2018-11-22T06:29:01.035Z,12
2018-11-22T06:29:59.573Z,16
2018-11-22T06:30:58.295Z,16
2018-11-22T06:31:56.856Z,20
2018-11-22T06:32:55.374Z,24
2018-11-22T06:33:53.902Z,28
2018-11-22T06:34:52.431Z,36
2018-11-22T06:35:50.960Z,40
2018-11-22T06:36:49.478Z,40
2018-11-22T06:37:47.994Z,48
2018-11-22T06:38:46.514Z,52
2018-11-22T06:39:45.120Z,60
2018-11-22T06:40:43.637Z,64
2018-11-22T06:41:42.247Z,72
2018-11-22T06:42:41.037Z,80
2018-11-22T06:43:39.585Z,92
2018-11-22T06:44:38.187Z,100
2018-11-22T06:45:36.949Z,104
2018-11-22T06:46:35.460Z,116
2018-11-22T06:47:34.013Z,124
2018-11-22T06:48:32.667Z,136
2018-11-22T06:51:14.690Z,172
2018-11-22T06:52:13.223Z,180
2018-11-22T06:53:11.776Z,196
2018-11-22T06:54:10.426Z,208
2018-11-22T06:55:08.943Z,224
2018-11-22T06:56:07.475Z,244
2018-11-22T06:57:06.161Z,260
2018-11-22T06:58:04.787Z,276
2018-11-22T06:59:03.394Z,292
2018-11-22T07:00:01.905Z,308
2018-11-22T07:01:00.610Z,324
2018-11-22T07:01:59.124Z,344
2018-11-22T07:02:57.921Z,360
2018-11-22T07:03:56.563Z,376
2018-11-22T07:04:55.092Z,400
2018-11-22T07:05:53.630Z,420
2018-11-22T07:06:52.175Z,444
2018-11-22T07:07:50.749Z,464
2018-11-22T07:08:49.296Z,484
2018-11-22T07:09:47.874Z,500
2018-11-22T07:10:46.513Z,520
2018-11-22T07:11:45.064Z,540
2018-11-22T07:12:43.582Z,560
2018-11-22T07:13:42.376Z,576
2018-11-22T07:14:40.906Z,592
2018-11-22T07:15:39.473Z,608
2018-11-22T07:16:37.999Z,628
2018-11-22T07:17:36.547Z,644
2018-11-22T07:18:35.066Z,664
2018-11-22T07:19:33.602Z,684
2018-11-22T07:20:32.176Z,700
2018-11-22T07:21:30.703Z,716
2018-11-22T07:22:29.238Z,736
2018-11-22T07:23:27.757Z,752
2018-11-22T07:24:26.317Z,772
2018-11-22T07:25:25.025Z,788
2018-11-22T07:26:23.620Z,808
2018-11-22T07:27:22.273Z,824
2018-11-22T07:28:20.918Z,844
2018-11-22T07:29:19.432Z,864
2018-11-22T07:30:18.041Z,888
2018-11-22T07:31:16.658Z,908
2018-11-22T07:32:15.187Z,928
2018-11-22T07:33:13.765Z,944
2018-11-22T07:34:12.312Z,956
2018-11-22T07:35:10.857Z,964
2018-11-22T07:36:09.379Z,968
2018-11-22T07:37:08.024Z,972
2018-11-22T07:38:06.706Z,972
2018-11-22T07:39:05.363Z,972
2018-11-22T07:40:03.996Z,972
2018-11-22T07:41:02.519Z,968
2018-11-22T07:42:01.083Z,968
2018-11-22T07:42:59.582Z,968
2018-11-22T07:43:58.137Z,972
2018-11-22T07:44:56.888Z,980
2018-11-22T07:45:55.415Z,988
2018-11-22T07:46:53.933Z,1000
2018-11-22T07:47:52.471Z,1008
2018-11-22T07:48:51.034Z,1024
2018-11-22T07:49:49.547Z,1040
2018-11-22T07:50:48.073Z,1060
2018-11-22T07:51:46.585Z,1084
2018-11-22T07:52:45.100Z,1100
2018-11-22T07:53:43.636Z,1124
2018-11-22T07:54:42.163Z,1136
2018-11-22T07:55:40.708Z,1156
2018-11-22T07:56:39.264Z,1172
2018-11-22T07:57:37.794Z,1184
2018-11-22T07:58:36.311Z,1192
2018-11-22T07:59:34.958Z,1204
2018-11-22T08:00:33.452Z,1212
2018-11-22T08:03:15.435Z,1224
2018-11-22T08:04:14.188Z,1228
2018-11-22T08:05:12.843Z,1244
2018-11-22T08:06:11.378Z,1260
2018-11-22T08:07:09.889Z,1288
2018-11-22T08:08:08.529Z,1316
2018-11-22T08:09:07.052Z,1348
2018-11-22T08:10:05.590Z,1384
2018-11-22T08:11:04.204Z,1428
2018-11-22T08:12:02.774Z,1472
2018-11-22T08:13:01.342Z,1512
2018-11-22T08:13:59.817Z,1540
2018-11-22T08:14:58.350Z,1564
2018-11-22T08:15:56.878Z,1592
2018-11-22T08:16:55.417Z,1616
2018-11-22T08:17:53.942Z,1632
2018-11-22T08:18:52.452Z,1648
2018-11-22T08:19:51.003Z,1668
2018-11-22T08:20:49.521Z,1692
2018-11-22T08:21:48.079Z,1716
2018-11-22T08:22:46.707Z,1732
2018-11-22T08:23:45.214Z,1748
2018-11-22T08:24:43.739Z,1768
2018-11-22T08:27:51.278Z,1836
2018-11-22T08:28:49.875Z,1864
2018-11-22T08:29:48.444Z,1892
2018-11-22T08:30:47.090Z,1920
2018-11-22T08:31:45.592Z,1936
2018-11-22T08:32:44.112Z,1928
2018-11-22T08:33:42.778Z,1936
2018-11-22T08:34:41.281Z,2000
2018-11-22T08:35:39.840Z,2148
2018-11-22T08:36:38.434Z,2196
2018-11-22T08:37:36.980Z,2228
2018-11-22T08:38:35.509Z,2252
2018-11-22T08:39:34.025Z,2264
2018-11-22T08:40:32.586Z,2264
2018-11-22T08:41:31.115Z,2264
2018-11-22T08:42:29.648Z,2272
2018-11-22T08:43:28.153Z,2272
2018-11-22T08:44:26.673Z,2260
2018-11-22T08:45:25.193Z,2232
2018-11-22T08:46:23.733Z,2200
2018-11-22T08:47:22.622Z,2168
2018-11-22T08:48:21.156Z,2136
2018-11-22T08:49:19.694Z,2104
2018-11-22T08:50:18.352Z,2076
2018-11-22T08:51:16.998Z,2048
2018-11-22T08:52:15.552Z,2024
2018-11-22T08:53:14.203Z,2000
2018-11-22T08:54:12.737Z,1976
2018-11-22T08:55:11.253Z,1956
2018-11-22T08:56:09.884Z,1944
2018-11-22T08:57:08.385Z,1928
2018-11-22T08:58:06.964Z,1924
2018-11-22T08:59:05.485Z,1912
2018-11-22T09:00:04.008Z,1904
2018-11-22T09:01:02.821Z,1892
2018-11-22T09:02:01.421Z,1892
2018-11-22T09:03:00.037Z,1888
2018-11-22T09:03:58.770Z,1880
2018-11-22T09:06:41.731Z,1864
2018-11-22T09:07:40.309Z,1856
2018-11-22T09:08:38.831Z,1848
2018-11-22T09:09:37.331Z,1848
2018-11-22T09:10:35.849Z,1844
2018-11-22T09:11:34.360Z,1840
2018-11-22T09:12:32.941Z,1836
2018-11-22T09:13:31.478Z,1832
2018-11-22T09:14:30.001Z,1832
2018-11-22T09:15:31.362Z,1828
2018-11-22T09:16:27.052Z,1832
2018-11-22T09:17:25.595Z,1828
2018-11-22T09:18:24.191Z,1832
2018-11-22T09:19:22.845Z,1828
2018-11-22T09:20:21.351Z,1828
2018-11-22T09:21:19.879Z,1824
2018-11-22T09:22:18.708Z,1832
2018-11-22T09:23:17.273Z,1840
2018-11-22T09:24:15.804Z,1840
2018-11-22T09:25:14.403Z,1840
2018-11-22T09:26:12.966Z,1844
2018-11-22T09:27:11.490Z,1848
2018-11-22T09:28:10.279Z,1852
2018-11-22T09:29:09.017Z,1860
2018-11-22T09:30:07.555Z,1864
2018-11-22T09:31:06.083Z,1868
2018-11-22T09:32:04.662Z,1872
2018-11-22T09:33:03.210Z,1880
2018-11-22T09:34:01.742Z,1880
2018-11-22T09:35:00.346Z,1884
2018-11-22T09:35:59.082Z,1888
2018-11-22T09:36:57.623Z,1888
2018-11-22T09:37:56.237Z,1884
2018-11-22T09:38:54.796Z,1880
2018-11-22T09:39:53.319Z,1880
2018-11-22T09:40:51.850Z,1880
2018-11-22T09:41:50.382Z,1884
2018-11-22T09:42:48.909Z,1884
2018-11-22T09:43:47.438Z,1888
2018-11-22T09:44:45.959Z,1892
2018-11-22T09:45:44.480Z,1892
2018-11-22T09:46:43.021Z,1896
2018-11-22T09:47:41.543Z,1892
2018-11-22T09:48:40.144Z,1892
2018-11-22T09:49:38.562Z,1892
2018-11-22T09:50:37.087Z,1896
2018-11-22T09:51:35.605Z,1900
2018-11-22T09:52:34.156Z,1908
2018-11-22T09:53:32.680Z,1908
2018-11-22T09:54:31.211Z,1916
2018-11-22T09:55:29.747Z,1920
2018-11-22T09:56:28.247Z,1924
2018-11-22T09:57:26.740Z,1932
2018-11-22T09:58:25.293Z,1936
2018-11-22T09:59:23.819Z,1936
2018-11-22T10:00:22.318Z,1940
2018-11-22T10:01:20.830Z,1944
2018-11-22T10:02:19.331Z,1940
2018-11-22T10:03:17.880Z,1940
2018-11-22T10:04:16.395Z,1932
2018-11-22T10:05:15.147Z,1932
2018-11-22T10:06:13.428Z,1928
2018-11-22T10:07:11.967Z,1928
2018-11-22T10:08:10.695Z,1928
2018-11-22T10:09:09.333Z,1920
2018-11-22T10:10:07.853Z,1916
2018-11-22T10:11:06.526Z,1916
2018-11-22T10:12:05.143Z,1916
2018-11-22T10:14:21.923Z,1916
2018-11-22T10:15:20.480Z,1912
2018-11-22T10:16:18.999Z,1912
2018-11-22T10:17:17.498Z,1904
2018-11-22T10:18:16.018Z,1900
2018-11-22T10:19:14.561Z,1900
2018-11-22T10:20:13.105Z,1900
2018-11-22T10:21:11.610Z,1904
2018-11-22T10:22:10.146Z,1900
2018-11-22T10:23:08.644Z,1888
2018-11-22T10:24:07.210Z,1900
2018-11-22T10:25:05.733Z,1896
2018-11-22T10:26:04.243Z,1896
2018-11-22T10:27:02.736Z,1892
2018-11-22T10:28:01.240Z,1888
2018-11-22T10:28:59.784Z,1880
2018-11-22T10:29:58.279Z,1860
2018-11-22T10:30:56.813Z,1856
2018-11-22T10:31:55.332Z,1824
2018-11-22T10:32:53.833Z,1820
2018-11-22T10:33:52.375Z,1800
2018-11-22T10:34:50.893Z,1796
2018-11-22T10:35:49.431Z,1772
2018-11-22T10:36:47.950Z,1800
2018-11-22T10:37:46.537Z,1840
2018-11-22T10:38:44.999Z,1800
2018-11-22T10:41:26.997Z,1736
2018-11-22T10:42:25.581Z,1748
2018-11-22T10:43:24.050Z,1752
2018-11-22T10:44:22.797Z,1772
2018-11-22T10:45:21.296Z,1788
2018-11-22T10:46:19.985Z,1780
2018-11-22T10:47:18.638Z,1844
2018-11-22T10:49:53.535Z,1900
2018-11-22T10:50:52.113Z,1896
2018-11-22T10:51:50.884Z,1904
2018-11-22T10:52:49.398Z,1880
2018-11-22T10:53:47.936Z,1856
2018-11-22T10:54:46.467Z,1876
2018-11-22T10:57:53.787Z,1988
2018-11-22T10:58:51.531Z,1980
2018-11-22T10:59:50.043Z,1964
2018-11-22T11:00:48.733Z,1976
2018-11-22T11:01:47.267Z,1984
2018-11-22T11:02:45.785Z,1980
2018-11-22T11:03:44.532Z,1960
2018-11-22T11:04:43.187Z,1972
2018-11-22T11:05:41.702Z,2004
2018-11-22T11:06:40.231Z,1980
2018-11-22T11:07:38.819Z,1964
2018-11-22T11:08:37.362Z,1984
2018-11-22T11:09:35.888Z,1992
2018-11-22T11:10:34.539Z,1976
2018-11-22T11:11:33.073Z,2028
2018-11-22T11:12:31.635Z,2072
2018-11-22T11:13:30.156Z,2056
2018-11-22T11:14:28.685Z,2044
2018-11-22T11:15:27.157Z,2072
2018-11-22T11:16:25.685Z,2072
2018-11-22T11:17:24.231Z,2056
2018-11-22T11:18:22.751Z,2060
2018-11-22T11:19:21.289Z,2072
2018-11-22T11:20:19.809Z,2060
2018-11-22T11:21:18.341Z,2056
2018-11-22T11:22:16.863Z,2068
2018-11-22T11:23:15.392Z,2092
2018-11-22T11:24:13.924Z,2144
2018-11-22T11:25:12.437Z,2172
2018-11-22T11:26:10.957Z,2228
2018-11-22T11:27:09.491Z,2304
2018-11-22T11:28:08.011Z,2376
2018-11-22T11:29:12.662Z,2448
2018-11-22T11:30:05.236Z,2500
2018-11-22T11:31:03.740Z,2540
2018-11-22T11:32:02.298Z,2508
2018-11-22T11:33:01.003Z,2396
2018-11-22T11:33:59.525Z,2284
2018-11-22T11:34:58.047Z,2184
2018-11-22T11:35:56.963Z,2136
2018-11-22T11:36:55.476Z,2096
2018-11-22T11:37:54.009Z,2072
2018-11-22T11:38:52.523Z,2080
2018-11-22T11:39:51.668Z,2124
2018-11-22T11:40:50.260Z,2176
2018-11-22T11:41:48.777Z,2220
2018-11-22T11:42:47.299Z,2280
2018-11-22T11:43:45.837Z,2328
2018-11-22T11:44:44.498Z,2364
2018-11-22T11:45:43.021Z,2340
2018-11-22T11:46:41.544Z,2292
2018-11-22T11:47:40.155Z,2236
2018-11-22T11:48:38.706Z,2216
2018-11-22T11:49:37.258Z,2220
2018-11-22T11:50:35.797Z,2208
2018-11-22T11:51:34.349Z,2168
2018-11-22T11:52:32.857Z,2120
2018-11-22T11:53:32.911Z,2068
2018-11-22T11:54:29.923Z,2048
2018-11-22T11:55:28.447Z,2020
2018-11-22T11:56:26.967Z,2020
2018-11-22T11:57:25.502Z,2072
2018-11-22T11:58:24.064Z,2168
2018-11-22T11:59:22.842Z,2272
2018-11-22T12:00:21.394Z,2384
2018-11-22T12:01:20.033Z,2520
2018-11-22T12:02:18.911Z,2724
2018-11-22T12:03:17.424Z,2860
2018-11-22T12:04:15.941Z,2988
2018-11-22T12:05:14.517Z,3060
2018-11-22T12:06:13.162Z,3040
2018-11-22T12:07:11.683Z,2864
2018-11-22T12:08:10.237Z,2596
2018-11-22T12:09:08.854Z,2344
2018-11-22T12:10:07.328Z,2164
2018-11-22T12:11:05.837Z,2040
2018-11-22T12:12:04.419Z,1956
2018-11-22T12:13:03.197Z,1908
2018-11-22T12:14:01.719Z,1880
2018-11-22T12:15:00.251Z,1868
2018-11-22T12:15:58.909Z,1864
2018-11-22T12:16:57.462Z,1856
2018-11-22T12:17:56.090Z,1848
2018-11-22T12:18:54.673Z,1844
2018-11-22T12:19:53.189Z,1844
2018-11-22T12:20:51.689Z,1840
2018-11-22T12:21:50.280Z,1840
2018-11-22T12:22:48.799Z,1836
2018-11-22T12:23:47.334Z,1836
2018-11-22T12:24:45.895Z,1832
2018-11-22T12:25:44.424Z,1836
2018-11-22T12:26:42.964Z,1836
2018-11-22T12:27:41.484Z,1828
2018-11-22T12:28:40.039Z,1832
2018-11-22T12:29:38.553Z,1832
2018-11-22T12:30:37.108Z,1832
2018-11-22T12:31:35.624Z,1824
2018-11-22T12:32:34.150Z,1824
2018-11-22T12:33:32.730Z,1824
2018-11-22T12:34:31.404Z,1820
2018-11-22T12:35:29.935Z,1820
2018-11-22T12:36:28.517Z,1816
2018-11-22T12:37:27.088Z,1812
2018-11-22T12:38:25.620Z,1808
2018-11-22T12:39:24.213Z,1808
2018-11-22T12:40:23.056Z,1808
2018-11-22T12:41:21.575Z,1804
2018-11-22T12:42:20.133Z,1804
2018-11-22T12:43:18.650Z,1800
2018-11-22T12:44:17.169Z,1800
2018-11-22T12:45:15.715Z,1800
2018-11-22T12:46:14.244Z,1792
2018-11-22T12:47:12.869Z,1788
2018-11-22T12:48:11.387Z,1788
2018-11-22T12:49:09.988Z,1784
2018-11-22T12:50:08.582Z,1780
2018-11-22T12:51:07.174Z,1780
2018-11-22T12:52:05.649Z,1776
2018-11-22T12:53:04.256Z,1776
2018-11-22T12:54:02.913Z,1772
2018-11-22T12:55:01.433Z,1772
2018-11-22T12:56:00.039Z,1768
2018-11-22T12:56:58.677Z,1764
2018-11-22T12:57:57.234Z,1760
2018-11-22T12:58:55.745Z,1756
2018-11-22T12:59:54.407Z,1752
2018-11-22T13:00:52.989Z,1752
2018-11-22T13:01:51.518Z,1752
2018-11-22T13:02:50.036Z,1748
2018-11-22T13:03:48.547Z,1744
2018-11-22T13:04:47.105Z,1736
2018-11-22T13:05:45.663Z,1736
2018-11-22T13:06:44.174Z,1736
2018-11-22T13:07:42.693Z,1728
2018-11-22T13:08:41.197Z,1728
2018-11-22T13:09:39.720Z,1724
2018-11-22T13:10:38.264Z,1724
2018-11-22T13:11:36.782Z,1716
2018-11-22T13:12:35.302Z,1712
2018-11-22T13:13:33.822Z,1712
2018-11-22T13:14:32.354Z,1704
2018-11-22T13:15:30.866Z,1704
2018-11-22T13:16:29.392Z,1700
2018-11-22T13:17:28.136Z,1700
2018-11-22T13:18:26.883Z,1692
2018-11-22T13:19:25.427Z,1692
2018-11-22T13:20:23.956Z,1688
2018-11-22T13:21:22.733Z,1684
2018-11-22T13:22:21.257Z,1680
2018-11-22T13:23:19.843Z,1680
2018-11-22T13:24:18.381Z,1676
2018-11-22T13:27:25.659Z,1664
2018-11-22T13:28:24.187Z,1664
2018-11-22T13:29:22.757Z,1660
2018-11-22T13:30:21.263Z,1652
2018-11-22T13:31:19.818Z,1648
2018-11-22T13:32:21.344Z,1648
2018-11-22T13:33:16.856Z,1644
2018-11-22T13:34:15.398Z,1640
2018-11-22T13:35:13.956Z,1636
2018-11-22T13:36:12.529Z,1632
2018-11-22T13:37:11.133Z,1628
2018-11-22T13:38:09.679Z,1624
2018-11-22T13:39:08.342Z,1620
2018-11-22T13:40:06.947Z,1616
2018-11-22T13:41:05.477Z,1608
2018-11-22T13:42:04.006Z,1608
2018-11-22T13:43:02.763Z,1600
2018-11-22T13:44:01.299Z,1596
2018-11-22T13:44:59.810Z,1592
2018-11-22T13:45:58.379Z,1588
2018-11-22T13:46:56.989Z,1584
2018-11-22T13:47:55.567Z,1580
2018-11-22T13:48:54.097Z,1572
2018-11-22T13:49:52.627Z,1568
2018-11-22T13:50:51.140Z,1564
2018-11-22T13:51:49.703Z,1560
2018-11-22T13:52:48.235Z,1552
2018-11-22T13:53:46.858Z,1548
2018-11-22T13:54:45.415Z,1540
2018-11-22T13:55:43.923Z,1536
2018-11-22T13:56:42.447Z,1532
2018-11-22T13:57:41.197Z,1524
2018-11-22T13:58:39.725Z,1520
2018-11-22T13:59:38.375Z,1516
2018-11-22T14:00:36.909Z,1508
2018-11-22T14:01:35.466Z,1504
2018-11-22T14:02:33.988Z,1496
2018-11-22T14:03:32.780Z,1488
2018-11-22T14:04:31.315Z,1484
2018-11-22T14:05:29.836Z,1476
2018-11-22T14:06:28.390Z,1472
2018-11-22T14:07:26.925Z,1460
2018-11-22T14:08:25.453Z,1456
2018-11-22T14:09:23.964Z,1448
2018-11-22T14:10:22.510Z,1440
2018-11-22T14:11:21.039Z,1432
2018-11-22T14:12:19.564Z,1428
2018-11-22T14:13:18.072Z,1420
2018-11-22T14:14:16.627Z,1408
2018-11-22T14:15:15.298Z,1400
2018-11-22T14:16:13.822Z,1392
2018-11-22T14:17:12.446Z,1384
2018-11-22T14:18:11.093Z,1376
2018-11-22T14:19:09.575Z,1368
2018-11-22T14:20:08.152Z,1360
2018-11-22T14:21:06.758Z,1352
2018-11-22T14:22:05.284Z,1340
2018-11-22T14:23:03.830Z,1328
2018-11-22T14:24:02.606Z,1320
2018-11-22T14:25:01.179Z,1312
2018-11-22T14:25:59.709Z,1300
2018-11-22T14:26:58.250Z,1292
2018-11-22T14:27:56.844Z,1284
2018-11-22T14:28:55.419Z,1272
2018-11-22T14:29:53.945Z,1264
2018-11-22T14:30:52.571Z,1252